sensor_id;sensor_type;location;lat;lon;timestamp;temperature;humidity
6375;DHT22;35400;45.472;-122.822;2023-07-29T00:00:45;27.80;71.20
6375;DHT22;35400;45.472;-122.822;2023-07-29T00:03:12;27.80;72.10
6375;DHT22;35400;45.472;-122.822;2023-07-29T00:05:40;27.80;71.60
6375;DHT22;35400;45.472;-122.822;2023-07-29T00:08:07;27.80;72.00
6375;DHT22;35400;45.472;-122.822;2023-07-29T00:10:36;27.70;73.30
6375;DHT22;35400;45.472;-122.822;2023-07-29T00:13:04;27.70;73.70
6375;DHT22;35400;45.472;-122.822;2023-07-29T00:15:32;27.60;74.50
6375;DHT22;35400;45.472;-122.822;2023-07-29T00:17:59;27.60;74.30
6375;DHT22;35400;45.472;-122.822;2023-07-29T00:20:25;27.50;74.50
6375;DHT22;35400;45.472;-122.822;2023-07-29T00:22:52;27.40;74.50
6375;DHT22;35400;45.472;-122.822;2023-07-29T00:25:21;27.40;75.30
6375;DHT22;35400;45.472;-122.822;2023-07-29T00:27:48;27.40;75.70
6375;DHT22;35400;45.472;-122.822;2023-07-29T00:30:15;27.40;75.80
6375;DHT22;35400;45.472;-122.822;2023-07-29T00:32:42;27.40;75.80
6375;DHT22;35400;45.472;-122.822;2023-07-29T00:35:09;27.50;74.80
6375;DHT22;35400;45.472;-122.822;2023-07-29T00:37:37;27.40;75.30
6375;DHT22;35400;45.472;-122.822;2023-07-29T00:40:13;27.40;74.80
6375;DHT22;35400;45.472;-122.822;2023-07-29T00:42:41;27.40;74.70
6375;DHT22;35400;45.472;-122.822;2023-07-29T00:45:09;27.30;73.70
6375;DHT22;35400;45.472;-122.822;2023-07-29T00:47:37;27.30;73.60
6375;DHT22;35400;45.472;-122.822;2023-07-29T00:50:05;27.30;73.70
6375;DHT22;35400;45.472;-122.822;2023-07-29T00:52:32;27.20;74.10
6375;DHT22;35400;45.472;-122.822;2023-07-29T00:54:59;27.20;74.80
6375;DHT22;35400;45.472;-122.822;2023-07-29T00:57:27;27.10;74.10
6375;DHT22;35400;45.472;-122.822;2023-07-29T00:59:54;27.10;73.90
6375;DHT22;35400;45.472;-122.822;2023-07-29T01:02:21;27.00;74.20
6375;DHT22;35400;45.472;-122.822;2023-07-29T01:04:59;26.90;74.50
6375;DHT22;35400;45.472;-122.822;2023-07-29T01:15:22;26.80;74.90
6375;DHT22;35400;45.472;-122.822;2023-07-29T01:17:54;26.70;74.10
6375;DHT22;35400;45.472;-122.822;2023-07-29T01:20:24;26.70;74.10
6375;DHT22;35400;45.472;-122.822;2023-07-29T01:22:51;26.60;74.40
6375;DHT22;35400;45.472;-122.822;2023-07-29T01:25:19;26.60;75.20
6375;DHT22;35400;45.472;-122.822;2023-07-29T01:27:48;26.50;75.30
6375;DHT22;35400;45.472;-122.822;2023-07-29T01:30:15;26.50;74.40
6375;DHT22;35400;45.472;-122.822;2023-07-29T01:36:02;26.40;74.90
6375;DHT22;35400;45.472;-122.822;2023-07-29T01:38:41;26.40;74.80
6375;DHT22;35400;45.472;-122.822;2023-07-29T01:41:10;26.30;74.60
6375;DHT22;35400;45.472;-122.822;2023-07-29T01:43:38;26.30;74.90
6375;DHT22;35400;45.472;-122.822;2023-07-29T01:46:09;26.30;75.10
6375;DHT22;35400;45.472;-122.822;2023-07-29T01:48:35;26.20;74.80
6375;DHT22;35400;45.472;-122.822;2023-07-29T01:51:03;26.20;75.10
6375;DHT22;35400;45.472;-122.822;2023-07-29T01:53:29;26.20;75.40
6375;DHT22;35400;45.472;-122.822;2023-07-29T01:55:56;26.10;75.80
6375;DHT22;35400;45.472;-122.822;2023-07-29T01:58:24;26.10;76.10
6375;DHT22;35400;45.472;-122.822;2023-07-29T02:00:51;26.10;76.20
6375;DHT22;35400;45.472;-122.822;2023-07-29T02:03:18;26.00;76.50
6375;DHT22;35400;45.472;-122.822;2023-07-29T02:05:45;26.00;76.70
6375;DHT22;35400;45.472;-122.822;2023-07-29T02:08:11;26.00;76.40
6375;DHT22;35400;45.472;-122.822;2023-07-29T02:10:38;26.00;76.50
6375;DHT22;35400;45.472;-122.822;2023-07-29T02:13:05;25.90;76.70
6375;DHT22;35400;45.472;-122.822;2023-07-29T02:15:32;25.90;76.90
6375;DHT22;35400;45.472;-122.822;2023-07-29T02:17:59;25.90;77.10
6375;DHT22;35400;45.472;-122.822;2023-07-29T02:20:27;25.80;77.20
6375;DHT22;35400;45.472;-122.822;2023-07-29T02:22:54;25.80;77.90
6375;DHT22;35400;45.472;-122.822;2023-07-29T02:25:21;25.80;78.30
6375;DHT22;35400;45.472;-122.822;2023-07-29T02:27:47;25.70;78.40
6375;DHT22;35400;45.472;-122.822;2023-07-29T02:30:14;25.70;78.80
6375;DHT22;35400;45.472;-122.822;2023-07-29T02:32:41;25.60;78.60
6375;DHT22;35400;45.472;-122.822;2023-07-29T02:35:08;25.60;78.40
6375;DHT22;35400;45.472;-122.822;2023-07-29T02:37:36;25.60;78.60
6375;DHT22;35400;45.472;-122.822;2023-07-29T02:40:03;25.60;78.90
6375;DHT22;35400;45.472;-122.822;2023-07-29T02:42:30;25.70;78.60
6375;DHT22;35400;45.472;-122.822;2023-07-29T02:44:57;25.60;78.80
6375;DHT22;35400;45.472;-122.822;2023-07-29T02:47:25;25.60;79.20
6375;DHT22;35400;45.472;-122.822;2023-07-29T02:49:51;25.50;79.30
6375;DHT22;35400;45.472;-122.822;2023-07-29T02:52:18;25.50;79.30
6375;DHT22;35400;45.472;-122.822;2023-07-29T02:54:45;25.40;79.40
6375;DHT22;35400;45.472;-122.822;2023-07-29T02:57:14;25.40;79.60
6375;DHT22;35400;45.472;-122.822;2023-07-29T02:59:41;25.30;79.90
6375;DHT22;35400;45.472;-122.822;2023-07-29T03:02:08;25.30;80.10
6375;DHT22;35400;45.472;-122.822;2023-07-29T03:04:34;25.20;80.10
6375;DHT22;35400;45.472;-122.822;2023-07-29T03:07:01;25.20;81.40
6375;DHT22;35400;45.472;-122.822;2023-07-29T03:09:28;25.20;80.90
6375;DHT22;35400;45.472;-122.822;2023-07-29T03:11:55;25.10;80.80
6375;DHT22;35400;45.472;-122.822;2023-07-29T03:14:23;25.10;80.80
6375;DHT22;35400;45.472;-122.822;2023-07-29T03:16:49;25.10;81.10
6375;DHT22;35400;45.472;-122.822;2023-07-29T03:19:16;25.00;81.30
6375;DHT22;35400;45.472;-122.822;2023-07-29T03:21:43;25.00;81.30
6375;DHT22;35400;45.472;-122.822;2023-07-29T03:24:10;24.90;81.80
6375;DHT22;35400;45.472;-122.822;2023-07-29T03:26:37;24.80;82.00
6375;DHT22;35400;45.472;-122.822;2023-07-29T03:29:04;24.70;82.10
6375;DHT22;35400;45.472;-122.822;2023-07-29T03:31:31;24.70;82.40
6375;DHT22;35400;45.472;-122.822;2023-07-29T03:33:57;24.60;82.50
6375;DHT22;35400;45.472;-122.822;2023-07-29T03:36:24;24.60;82.80
6375;DHT22;35400;45.472;-122.822;2023-07-29T03:38:51;24.50;82.90
6375;DHT22;35400;45.472;-122.822;2023-07-29T03:41:18;24.40;83.10
6375;DHT22;35400;45.472;-122.822;2023-07-29T03:43:45;24.40;83.30
6375;DHT22;35400;45.472;-122.822;2023-07-29T03:46:12;24.30;83.40
6375;DHT22;35400;45.472;-122.822;2023-07-29T03:48:40;24.20;83.60
6375;DHT22;35400;45.472;-122.822;2023-07-29T03:51:07;24.10;84.00
6375;DHT22;35400;45.472;-122.822;2023-07-29T03:53:35;24.10;84.20
6375;DHT22;35400;45.472;-122.822;2023-07-29T03:56:02;24.00;84.30
6375;DHT22;35400;45.472;-122.822;2023-07-29T03:58:28;23.90;84.50
6375;DHT22;35400;45.472;-122.822;2023-07-29T04:00:55;23.90;84.80
6375;DHT22;35400;45.472;-122.822;2023-07-29T04:03:22;23.80;85.10
6375;DHT22;35400;45.472;-122.822;2023-07-29T04:05:51;23.70;85.40
6375;DHT22;35400;45.472;-122.822;2023-07-29T04:08:19;23.60;85.40
6375;DHT22;35400;45.472;-122.822;2023-07-29T04:10:46;23.60;85.70
6375;DHT22;35400;45.472;-122.822;2023-07-29T04:13:13;23.50;85.80
6375;DHT22;35400;45.472;-122.822;2023-07-29T04:15:39;23.40;85.80
6375;DHT22;35400;45.472;-122.822;2023-07-29T04:18:06;23.30;85.80
6375;DHT22;35400;45.472;-122.822;2023-07-29T04:20:33;23.30;86.00
6375;DHT22;35400;45.472;-122.822;2023-07-29T04:23:00;23.20;86.00
6375;DHT22;35400;45.472;-122.822;2023-07-29T04:25:28;23.10;86.30
6375;DHT22;35400;45.472;-122.822;2023-07-29T04:27:54;23.00;86.50
6375;DHT22;35400;45.472;-122.822;2023-07-29T04:30:23;23.00;86.80
6375;DHT22;35400;45.472;-122.822;2023-07-29T04:32:50;22.90;87.00
6375;DHT22;35400;45.472;-122.822;2023-07-29T04:35:17;22.80;86.90
6375;DHT22;35400;45.472;-122.822;2023-07-29T04:37:44;22.70;86.90
6375;DHT22;35400;45.472;-122.822;2023-07-29T04:40:11;22.70;87.30
6375;DHT22;35400;45.472;-122.822;2023-07-29T04:42:37;22.70;87.30
6375;DHT22;35400;45.472;-122.822;2023-07-29T04:45:05;22.60;87.50
6375;DHT22;35400;45.472;-122.822;2023-07-29T04:47:32;22.50;87.50
6375;DHT22;35400;45.472;-122.822;2023-07-29T04:49:59;22.40;87.60
6375;DHT22;35400;45.472;-122.822;2023-07-29T04:52:26;22.40;88.00
6375;DHT22;35400;45.472;-122.822;2023-07-29T04:54:53;22.30;88.20
6375;DHT22;35400;45.472;-122.822;2023-07-29T04:57:19;22.20;88.20
6375;DHT22;35400;45.472;-122.822;2023-07-29T04:59:46;22.20;88.60
6375;DHT22;35400;45.472;-122.822;2023-07-29T05:02:13;22.10;88.80
6375;DHT22;35400;45.472;-122.822;2023-07-29T05:04:40;22.00;88.90
6375;DHT22;35400;45.472;-122.822;2023-07-29T05:07:07;21.90;89.00
6375;DHT22;35400;45.472;-122.822;2023-07-29T05:09:33;21.90;89.60
6375;DHT22;35400;45.472;-122.822;2023-07-29T05:12:01;21.80;89.90
6375;DHT22;35400;45.472;-122.822;2023-07-29T05:14:28;21.70;89.90
6375;DHT22;35400;45.472;-122.822;2023-07-29T05:16:55;21.70;90.10
6375;DHT22;35400;45.472;-122.822;2023-07-29T05:19:21;21.60;90.10
6375;DHT22;35400;45.472;-122.822;2023-07-29T05:21:49;21.50;90.20
6375;DHT22;35400;45.472;-122.822;2023-07-29T05:24:16;21.50;90.40
6375;DHT22;35400;45.472;-122.822;2023-07-29T05:26:43;21.40;90.40
6375;DHT22;35400;45.472;-122.822;2023-07-29T05:29:09;21.30;90.50
6375;DHT22;35400;45.472;-122.822;2023-07-29T05:31:36;21.20;90.60
6375;DHT22;35400;45.472;-122.822;2023-07-29T05:34:03;21.10;90.80
6375;DHT22;35400;45.472;-122.822;2023-07-29T05:36:30;21.10;91.00
6375;DHT22;35400;45.472;-122.822;2023-07-29T05:38:58;21.00;91.00
6375;DHT22;35400;45.472;-122.822;2023-07-29T05:41:24;20.90;91.10
6375;DHT22;35400;45.472;-122.822;2023-07-29T05:43:53;20.90;91.20
6375;DHT22;35400;45.472;-122.822;2023-07-29T05:46:20;20.80;91.20
6375;DHT22;35400;45.472;-122.822;2023-07-29T05:48:47;20.80;91.40
6375;DHT22;35400;45.472;-122.822;2023-07-29T05:51:14;20.70;91.80
6375;DHT22;35400;45.472;-122.822;2023-07-29T05:53:41;20.70;91.60
6375;DHT22;35400;45.472;-122.822;2023-07-29T05:56:08;20.60;91.70
6375;DHT22;35400;45.472;-122.822;2023-07-29T05:58:36;20.60;91.70
6375;DHT22;35400;45.472;-122.822;2023-07-29T06:01:03;20.50;91.90
6375;DHT22;35400;45.472;-122.822;2023-07-29T06:03:30;20.50;92.10
6375;DHT22;35400;45.472;-122.822;2023-07-29T06:05:56;20.40;92.10
6375;DHT22;35400;45.472;-122.822;2023-07-29T06:08:23;20.30;92.20
6375;DHT22;35400;45.472;-122.822;2023-07-29T06:10:50;20.30;92.30
6375;DHT22;35400;45.472;-122.822;2023-07-29T06:13:17;20.30;92.40
6375;DHT22;35400;45.472;-122.822;2023-07-29T06:15:44;20.20;92.50
6375;DHT22;35400;45.472;-122.822;2023-07-29T06:18:11;20.20;92.50
6375;DHT22;35400;45.472;-122.822;2023-07-29T06:20:38;20.10;92.70
6375;DHT22;35400;45.472;-122.822;2023-07-29T06:23:05;20.10;92.80
6375;DHT22;35400;45.472;-122.822;2023-07-29T06:25:32;20.00;92.80
6375;DHT22;35400;45.472;-122.822;2023-07-29T06:27:59;19.90;92.90
6375;DHT22;35400;45.472;-122.822;2023-07-29T06:30:26;19.90;93.00
6375;DHT22;35400;45.472;-122.822;2023-07-29T06:32:53;19.90;93.20
6375;DHT22;35400;45.472;-122.822;2023-07-29T06:35:19;19.80;93.20
6375;DHT22;35400;45.472;-122.822;2023-07-29T06:37:46;19.70;93.40
6375;DHT22;35400;45.472;-122.822;2023-07-29T06:40:13;19.70;93.50
6375;DHT22;35400;45.472;-122.822;2023-07-29T06:42:40;19.60;93.60
6375;DHT22;35400;45.472;-122.822;2023-07-29T06:45:07;19.60;93.70
6375;DHT22;35400;45.472;-122.822;2023-07-29T06:47:34;19.50;93.80
6375;DHT22;35400;45.472;-122.822;2023-07-29T06:50:01;19.50;93.80
6375;DHT22;35400;45.472;-122.822;2023-07-29T06:52:28;19.40;93.80
6375;DHT22;35400;45.472;-122.822;2023-07-29T06:54:55;19.40;93.90
6375;DHT22;35400;45.472;-122.822;2023-07-29T06:57:23;19.30;93.90
6375;DHT22;35400;45.472;-122.822;2023-07-29T06:59:49;19.30;94.00
6375;DHT22;35400;45.472;-122.822;2023-07-29T07:02:16;19.20;94.00
6375;DHT22;35400;45.472;-122.822;2023-07-29T07:04:43;19.20;94.00
6375;DHT22;35400;45.472;-122.822;2023-07-29T07:07:10;19.10;94.10
6375;DHT22;35400;45.472;-122.822;2023-07-29T07:09:37;19.10;94.40
6375;DHT22;35400;45.472;-122.822;2023-07-29T07:12:04;19.10;94.10
6375;DHT22;35400;45.472;-122.822;2023-07-29T07:14:31;19.00;94.10
6375;DHT22;35400;45.472;-122.822;2023-07-29T07:16:57;19.00;94.20
6375;DHT22;35400;45.472;-122.822;2023-07-29T07:19:24;18.90;94.20
6375;DHT22;35400;45.472;-122.822;2023-07-29T07:21:51;18.90;94.20
6375;DHT22;35400;45.472;-122.822;2023-07-29T07:24:18;18.80;94.20
6375;DHT22;35400;45.472;-122.822;2023-07-29T07:26:44;18.80;94.40
6375;DHT22;35400;45.472;-122.822;2023-07-29T07:29:11;18.80;94.50
6375;DHT22;35400;45.472;-122.822;2023-07-29T07:31:38;18.70;94.40
6375;DHT22;35400;45.472;-122.822;2023-07-29T07:34:05;18.70;94.50
6375;DHT22;35400;45.472;-122.822;2023-07-29T07:36:32;18.60;94.60
6375;DHT22;35400;45.472;-122.822;2023-07-29T07:38:58;18.60;94.70
6375;DHT22;35400;45.472;-122.822;2023-07-29T07:41:25;18.50;94.80
6375;DHT22;35400;45.472;-122.822;2023-07-29T07:43:52;18.50;95.10
6375;DHT22;35400;45.472;-122.822;2023-07-29T07:46:19;18.50;94.90
6375;DHT22;35400;45.472;-122.822;2023-07-29T07:48:46;18.40;95.10
6375;DHT22;35400;45.472;-122.822;2023-07-29T07:51:13;18.40;95.10
6375;DHT22;35400;45.472;-122.822;2023-07-29T07:53:40;18.30;95.20
6375;DHT22;35400;45.472;-122.822;2023-07-29T07:56:07;18.30;95.20
6375;DHT22;35400;45.472;-122.822;2023-07-29T07:58:34;18.20;95.30
6375;DHT22;35400;45.472;-122.822;2023-07-29T08:01:05;18.20;95.40
6375;DHT22;35400;45.472;-122.822;2023-07-29T08:03:33;18.20;95.70
6375;DHT22;35400;45.472;-122.822;2023-07-29T08:06:00;18.10;95.70
6375;DHT22;35400;45.472;-122.822;2023-07-29T08:08:27;18.10;95.80
6375;DHT22;35400;45.472;-122.822;2023-07-29T08:10:55;18.00;96.00
6375;DHT22;35400;45.472;-122.822;2023-07-29T08:13:26;18.00;96.10
6375;DHT22;35400;45.472;-122.822;2023-07-29T08:15:53;17.90;96.20
6375;DHT22;35400;45.472;-122.822;2023-07-29T08:18:20;17.90;96.30
6375;DHT22;35400;45.472;-122.822;2023-07-29T08:20:57;17.80;96.40
6375;DHT22;35400;45.472;-122.822;2023-07-29T08:23:25;17.80;96.60
6375;DHT22;35400;45.472;-122.822;2023-07-29T08:25:57;17.70;96.70
6375;DHT22;35400;45.472;-122.822;2023-07-29T08:28:29;17.70;96.90
6375;DHT22;35400;45.472;-122.822;2023-07-29T08:30:57;17.60;97.10
6375;DHT22;35400;45.472;-122.822;2023-07-29T08:33:24;17.60;97.30
6375;DHT22;35400;45.472;-122.822;2023-07-29T08:35:51;17.60;97.40
6375;DHT22;35400;45.472;-122.822;2023-07-29T08:38:18;17.50;97.60
6375;DHT22;35400;45.472;-122.822;2023-07-29T08:43:35;17.40;97.90
6375;DHT22;35400;45.472;-122.822;2023-07-29T08:46:05;17.40;98.20
6375;DHT22;35400;45.472;-122.822;2023-07-29T08:48:39;17.30;98.50
6375;DHT22;35400;45.472;-122.822;2023-07-29T08:51:08;17.30;98.70
6375;DHT22;35400;45.472;-122.822;2023-07-29T08:53:36;17.30;99.00
6375;DHT22;35400;45.472;-122.822;2023-07-29T08:56:04;17.20;99.30
6375;DHT22;35400;45.472;-122.822;2023-07-29T08:58:32;17.20;99.50
6375;DHT22;35400;45.472;-122.822;2023-07-29T09:00:59;17.20;99.80
6375;DHT22;35400;45.472;-122.822;2023-07-29T09:03:26;17.10;99.90
6375;DHT22;35400;45.472;-122.822;2023-07-29T09:05:53;17.10;99.90
6375;DHT22;35400;45.472;-122.822;2023-07-29T09:08:21;17.10;99.90
6375;DHT22;35400;45.472;-122.822;2023-07-29T09:10:48;17.00;99.90
6375;DHT22;35400;45.472;-122.822;2023-07-29T09:13:15;17.00;99.90
6375;DHT22;35400;45.472;-122.822;2023-07-29T09:15:41;17.00;99.90
6375;DHT22;35400;45.472;-122.822;2023-07-29T09:18:19;16.90;99.90
6375;DHT22;35400;45.472;-122.822;2023-07-29T09:20:48;16.90;99.90
6375;DHT22;35400;45.472;-122.822;2023-07-29T09:23:15;16.80;99.90
6375;DHT22;35400;45.472;-122.822;2023-07-29T09:25:42;16.80;99.90
6375;DHT22;35400;45.472;-122.822;2023-07-29T09:28:11;16.80;99.90
6375;DHT22;35400;45.472;-122.822;2023-07-29T09:30:42;16.70;99.90
6375;DHT22;35400;45.472;-122.822;2023-07-29T09:33:09;16.70;99.90
6375;DHT22;35400;45.472;-122.822;2023-07-29T09:35:37;16.60;99.90
6375;DHT22;35400;45.472;-122.822;2023-07-29T09:38:07;16.60;99.90
6375;DHT22;35400;45.472;-122.822;2023-07-29T09:40:38;16.60;99.90
6375;DHT22;35400;45.472;-122.822;2023-07-29T09:43:07;16.60;99.90
6375;DHT22;35400;45.472;-122.822;2023-07-29T09:45:35;16.50;99.90
6375;DHT22;35400;45.472;-122.822;2023-07-29T09:48:03;16.50;99.90
6375;DHT22;35400;45.472;-122.822;2023-07-29T09:50:31;16.40;99.90
6375;DHT22;35400;45.472;-122.822;2023-07-29T09:52:58;16.40;99.90
6375;DHT22;35400;45.472;-122.822;2023-07-29T09:55:25;16.40;99.90
6375;DHT22;35400;45.472;-122.822;2023-07-29T09:58:00;16.30;99.90
6375;DHT22;35400;45.472;-122.822;2023-07-29T10:00:34;16.30;99.90
6375;DHT22;35400;45.472;-122.822;2023-07-29T10:03:01;16.20;99.90
6375;DHT22;35400;45.472;-122.822;2023-07-29T10:05:29;16.20;99.90
6375;DHT22;35400;45.472;-122.822;2023-07-29T10:07:56;16.20;99.90
6375;DHT22;35400;45.472;-122.822;2023-07-29T10:10:24;16.10;99.90
6375;DHT22;35400;45.472;-122.822;2023-07-29T10:12:50;16.10;99.90
6375;DHT22;35400;45.472;-122.822;2023-07-29T10:15:18;16.00;99.90
6375;DHT22;35400;45.472;-122.822;2023-07-29T10:17:46;16.00;99.90
6375;DHT22;35400;45.472;-122.822;2023-07-29T10:20:13;15.90;99.90
6375;DHT22;35400;45.472;-122.822;2023-07-29T10:22:40;15.90;99.90
6375;DHT22;35400;45.472;-122.822;2023-07-29T10:25:18;15.80;99.90
6375;DHT22;35400;45.472;-122.822;2023-07-29T10:27:56;15.80;99.90
6375;DHT22;35400;45.472;-122.822;2023-07-29T10:30:24;15.80;99.90
6375;DHT22;35400;45.472;-122.822;2023-07-29T10:32:52;15.70;99.90
6375;DHT22;35400;45.472;-122.822;2023-07-29T10:35:19;15.70;99.90
6375;DHT22;35400;45.472;-122.822;2023-07-29T10:37:46;15.70;99.90
6375;DHT22;35400;45.472;-122.822;2023-07-29T10:40:17;15.70;99.90
6375;DHT22;35400;45.472;-122.822;2023-07-29T10:43:11;15.60;99.90
6375;DHT22;35400;45.472;-122.822;2023-07-29T10:45:42;15.60;99.90
6375;DHT22;35400;45.472;-122.822;2023-07-29T10:48:13;15.50;99.90
6375;DHT22;35400;45.472;-122.822;2023-07-29T10:51:36;15.50;99.90
6375;DHT22;35400;45.472;-122.822;2023-07-29T10:54:14;15.50;99.90
6375;DHT22;35400;45.472;-122.822;2023-07-29T10:56:51;15.40;99.90
6375;DHT22;35400;45.472;-122.822;2023-07-29T11:02:01;15.40;99.90
6375;DHT22;35400;45.472;-122.822;2023-07-29T11:04:29;15.30;99.90
6375;DHT22;35400;45.472;-122.822;2023-07-29T11:12:46;15.20;99.90
6375;DHT22;35400;45.472;-122.822;2023-07-29T11:15:18;15.10;99.90
6375;DHT22;35400;45.472;-122.822;2023-07-29T11:18:04;15.10;99.90
6375;DHT22;35400;45.472;-122.822;2023-07-29T11:20:33;15.10;99.90
6375;DHT22;35400;45.472;-122.822;2023-07-29T11:23:01;15.00;99.90
6375;DHT22;35400;45.472;-122.822;2023-07-29T11:25:29;15.00;99.90
6375;DHT22;35400;45.472;-122.822;2023-07-29T11:27:58;14.90;99.90
6375;DHT22;35400;45.472;-122.822;2023-07-29T11:30:25;14.90;99.90
6375;DHT22;35400;45.472;-122.822;2023-07-29T11:32:56;14.80;99.90
6375;DHT22;35400;45.472;-122.822;2023-07-29T11:35:23;14.80;99.90
6375;DHT22;35400;45.472;-122.822;2023-07-29T11:37:51;14.80;99.90
6375;DHT22;35400;45.472;-122.822;2023-07-29T11:40:23;14.70;99.90
6375;DHT22;35400;45.472;-122.822;2023-07-29T11:42:51;14.70;99.90
6375;DHT22;35400;45.472;-122.822;2023-07-29T11:45:19;14.70;99.90
6375;DHT22;35400;45.472;-122.822;2023-07-29T11:47:46;14.60;99.90
6375;DHT22;35400;45.472;-122.822;2023-07-29T11:50:14;14.60;99.90
6375;DHT22;35400;45.472;-122.822;2023-07-29T11:52:43;14.60;99.90
6375;DHT22;35400;45.472;-122.822;2023-07-29T11:55:11;14.50;99.90
6375;DHT22;35400;45.472;-122.822;2023-07-29T11:57:39;14.50;99.90
6375;DHT22;35400;45.472;-122.822;2023-07-29T12:00:08;14.50;99.90
6375;DHT22;35400;45.472;-122.822;2023-07-29T12:02:41;14.50;99.90
6375;DHT22;35400;45.472;-122.822;2023-07-29T12:05:10;14.40;99.90
6375;DHT22;35400;45.472;-122.822;2023-07-29T12:07:42;14.40;99.90
6375;DHT22;35400;45.472;-122.822;2023-07-29T12:10:10;14.40;99.90
6375;DHT22;35400;45.472;-122.822;2023-07-29T12:12:48;14.40;99.90
6375;DHT22;35400;45.472;-122.822;2023-07-29T12:15:28;14.30;99.90
6375;DHT22;35400;45.472;-122.822;2023-07-29T12:17:56;14.30;99.90
6375;DHT22;35400;45.472;-122.822;2023-07-29T12:20:24;14.20;99.90
6375;DHT22;35400;45.472;-122.822;2023-07-29T12:22:53;14.20;99.90
6375;DHT22;35400;45.472;-122.822;2023-07-29T12:25:20;14.20;99.90
6375;DHT22;35400;45.472;-122.822;2023-07-29T12:27:48;14.20;99.90
6375;DHT22;35400;45.472;-122.822;2023-07-29T12:30:14;14.20;99.90
6375;DHT22;35400;45.472;-122.822;2023-07-29T12:32:47;14.10;99.90
6375;DHT22;35400;45.472;-122.822;2023-07-29T12:35:14;14.10;99.90
6375;DHT22;35400;45.472;-122.822;2023-07-29T12:37:41;14.10;99.90
6375;DHT22;35400;45.472;-122.822;2023-07-29T12:40:29;14.00;99.90
6375;DHT22;35400;45.472;-122.822;2023-07-29T12:42:56;14.00;99.90
6375;DHT22;35400;45.472;-122.822;2023-07-29T12:45:23;14.00;99.90
6375;DHT22;35400;45.472;-122.822;2023-07-29T12:47:53;13.90;99.90
6375;DHT22;35400;45.472;-122.822;2023-07-29T12:50:20;13.90;99.90
6375;DHT22;35400;45.472;-122.822;2023-07-29T12:52:47;13.90;99.90
6375;DHT22;35400;45.472;-122.822;2023-07-29T12:55:14;13.90;99.90
6375;DHT22;35400;45.472;-122.822;2023-07-29T12:57:42;13.80;99.90
6375;DHT22;35400;45.472;-122.822;2023-07-29T13:00:10;13.80;99.90
6375;DHT22;35400;45.472;-122.822;2023-07-29T13:02:37;13.70;99.90
6375;DHT22;35400;45.472;-122.822;2023-07-29T13:05:04;13.70;99.90
6375;DHT22;35400;45.472;-122.822;2023-07-29T13:07:31;13.70;99.90
6375;DHT22;35400;45.472;-122.822;2023-07-29T13:09:58;13.70;99.90
6375;DHT22;35400;45.472;-122.822;2023-07-29T13:12:25;13.70;99.90
6375;DHT22;35400;45.472;-122.822;2023-07-29T13:14:51;13.70;99.90
6375;DHT22;35400;45.472;-122.822;2023-07-29T13:17:18;13.70;99.90
6375;DHT22;35400;45.472;-122.822;2023-07-29T13:19:45;13.70;99.90
6375;DHT22;35400;45.472;-122.822;2023-07-29T13:22:12;13.70;99.90
6375;DHT22;35400;45.472;-122.822;2023-07-29T13:24:38;13.60;99.90
6375;DHT22;35400;45.472;-122.822;2023-07-29T13:27:05;13.60;99.90
6375;DHT22;35400;45.472;-122.822;2023-07-29T13:29:32;13.60;99.90
6375;DHT22;35400;45.472;-122.822;2023-07-29T13:31:59;13.60;99.90
6375;DHT22;35400;45.472;-122.822;2023-07-29T13:34:26;13.60;99.90
6375;DHT22;35400;45.472;-122.822;2023-07-29T13:36:53;13.70;99.90
6375;DHT22;35400;45.472;-122.822;2023-07-29T13:39:20;13.70;99.90
6375;DHT22;35400;45.472;-122.822;2023-07-29T13:41:46;13.70;99.90
6375;DHT22;35400;45.472;-122.822;2023-07-29T13:44:15;13.70;99.90
6375;DHT22;35400;45.472;-122.822;2023-07-29T13:46:42;13.80;99.90
6375;DHT22;35400;45.472;-122.822;2023-07-29T13:49:08;13.90;99.90
6375;DHT22;35400;45.472;-122.822;2023-07-29T13:51:35;13.90;99.90
6375;DHT22;35400;45.472;-122.822;2023-07-29T13:54:02;14.00;99.90
6375;DHT22;35400;45.472;-122.822;2023-07-29T13:56:29;14.00;99.90
6375;DHT22;35400;45.472;-122.822;2023-07-29T13:58:55;14.10;99.90
6375;DHT22;35400;45.472;-122.822;2023-07-29T14:01:22;14.20;99.90
6375;DHT22;35400;45.472;-122.822;2023-07-29T14:03:49;14.30;99.90
6375;DHT22;35400;45.472;-122.822;2023-07-29T14:06:16;14.30;99.90
6375;DHT22;35400;45.472;-122.822;2023-07-29T14:08:43;14.40;99.90
6375;DHT22;35400;45.472;-122.822;2023-07-29T14:11:10;14.40;99.90
6375;DHT22;35400;45.472;-122.822;2023-07-29T14:13:37;14.50;99.90
6375;DHT22;35400;45.472;-122.822;2023-07-29T14:16:04;14.60;99.90
6375;DHT22;35400;45.472;-122.822;2023-07-29T14:18:31;14.70;99.90
6375;DHT22;35400;45.472;-122.822;2023-07-29T14:20:58;14.80;99.90
6375;DHT22;35400;45.472;-122.822;2023-07-29T14:23:24;14.90;99.90
6375;DHT22;35400;45.472;-122.822;2023-07-29T14:25:51;14.90;99.90
6375;DHT22;35400;45.472;-122.822;2023-07-29T14:28:18;15.00;99.90
6375;DHT22;35400;45.472;-122.822;2023-07-29T14:30:45;15.00;99.90
6375;DHT22;35400;45.472;-122.822;2023-07-29T14:33:11;15.10;99.90
6375;DHT22;35400;45.472;-122.822;2023-07-29T14:35:39;15.30;99.90
6375;DHT22;35400;45.472;-122.822;2023-07-29T14:38:06;15.40;99.90
6375;DHT22;35400;45.472;-122.822;2023-07-29T14:40:33;15.50;99.90
6375;DHT22;35400;45.472;-122.822;2023-07-29T14:43:00;15.60;99.90
6375;DHT22;35400;45.472;-122.822;2023-07-29T14:45:27;15.60;99.90
6375;DHT22;35400;45.472;-122.822;2023-07-29T14:47:53;15.70;99.90
6375;DHT22;35400;45.472;-122.822;2023-07-29T14:50:20;15.90;99.90
6375;DHT22;35400;45.472;-122.822;2023-07-29T14:52:47;15.90;99.90
6375;DHT22;35400;45.472;-122.822;2023-07-29T14:55:14;16.10;99.90
6375;DHT22;35400;45.472;-122.822;2023-07-29T14:57:41;16.30;99.90
6375;DHT22;35400;45.472;-122.822;2023-07-29T15:00:08;16.70;99.90
6375;DHT22;35400;45.472;-122.822;2023-07-29T15:02:35;17.30;99.90
6375;DHT22;35400;45.472;-122.822;2023-07-29T15:05:02;18.10;99.90
6375;DHT22;35400;45.472;-122.822;2023-07-29T15:07:28;19.00;99.90
6375;DHT22;35400;45.472;-122.822;2023-07-29T15:09:55;20.00;99.90
6375;DHT22;35400;45.472;-122.822;2023-07-29T15:12:22;20.90;99.90
6375;DHT22;35400;45.472;-122.822;2023-07-29T15:14:49;21.70;99.90
6375;DHT22;35400;45.472;-122.822;2023-07-29T15:17:16;22.50;99.90
6375;DHT22;35400;45.472;-122.822;2023-07-29T15:19:43;23.10;99.90
6375;DHT22;35400;45.472;-122.822;2023-07-29T15:22:09;23.70;99.90
6375;DHT22;35400;45.472;-122.822;2023-07-29T15:24:36;24.20;99.90
6375;DHT22;35400;45.472;-122.822;2023-07-29T15:27:05;24.70;99.00
6375;DHT22;35400;45.472;-122.822;2023-07-29T15:29:32;25.10;97.30